sensor_id;sensor_type;location;lat;lon;timestamp;P1;durP1;ratioP1;P2;durP2;ratioP2
4555;SDS011;2290;48.674;9.018;2023-09-08T00:01:25;7.67;;;4.60;;
4555;SDS011;2290;48.674;9.018;2023-09-08T00:03:50;6.87;;;4.20;;
4555;SDS011;2290;48.674;9.018;2023-09-08T00:06:16;7.37;;;4.73;;
4555;SDS011;2290;48.674;9.018;2023-09-08T00:08:41;6.47;;;4.87;;
4555;SDS011;2290;48.674;9.018;2023-09-08T00:11:08;6.57;;;5.30;;
4555;SDS011;2290;48.674;9.018;2023-09-08T00:13:33;6.33;;;4.40;;
4555;SDS011;2290;48.674;9.018;2023-09-08T00:15:59;6.30;;;5.10;;
4555;SDS011;2290;48.674;9.018;2023-09-08T00:18:25;8.03;;;5.10;;
4555;SDS011;2290;48.674;9.018;2023-09-08T00:20:50;7.63;;;4.50;;
4555;SDS011;2290;48.674;9.018;2023-09-08T00:23:16;5.83;;;4.77;;
4555;SDS011;2290;48.674;9.018;2023-09-08T00:25:41;5.00;;;4.47;;
4555;SDS011;2290;48.674;9.018;2023-09-08T00:28:07;7.90;;;5.00;;
4555;SDS011;2290;48.674;9.018;2023-09-08T00:30:32;6.00;;;4.60;;
4555;SDS011;2290;48.674;9.018;2023-09-08T00:32:58;6.17;;;5.20;;
4555;SDS011;2290;48.674;9.018;2023-09-08T00:35:23;5.70;;;4.27;;
4555;SDS011;2290;48.674;9.018;2023-09-08T00:37:49;7.23;;;4.97;;
4555;SDS011;2290;48.674;9.018;2023-09-08T00:40:15;8.97;;;4.97;;
4555;SDS011;2290;48.674;9.018;2023-09-08T00:42:40;7.30;;;5.00;;
4555;SDS011;2290;48.674;9.018;2023-09-08T00:45:06;6.97;;;4.60;;
4555;SDS011;2290;48.674;9.018;2023-09-08T00:47:32;6.20;;;4.67;;
4555;SDS011;2290;48.674;9.018;2023-09-08T00:49:58;7.60;;;4.53;;
4555;SDS011;2290;48.674;9.018;2023-09-08T00:52:24;7.23;;;4.60;;
4555;SDS011;2290;48.674;9.018;2023-09-08T00:54:49;6.70;;;5.17;;
4555;SDS011;2290;48.674;9.018;2023-09-08T00:57:15;5.47;;;4.63;;
4555;SDS011;2290;48.674;9.018;2023-09-08T00:59:40;6.23;;;4.80;;
4555;SDS011;2290;48.674;9.018;2023-09-08T01:02:06;6.00;;;5.30;;
4555;SDS011;2290;48.674;9.018;2023-09-08T01:04:32;8.53;;;5.23;;
4555;SDS011;2290;48.674;9.018;2023-09-08T01:06:58;5.87;;;4.80;;
4555;SDS011;2290;48.674;9.018;2023-09-08T01:09:25;7.13;;;5.37;;
4555;SDS011;2290;48.674;9.018;2023-09-08T01:11:51;7.33;;;5.60;;
4555;SDS011;2290;48.674;9.018;2023-09-08T01:14:20;5.90;;;4.97;;
4555;SDS011;2290;48.674;9.018;2023-09-08T01:16:45;7.90;;;4.87;;
4555;SDS011;2290;48.674;9.018;2023-09-08T01:19:11;7.33;;;5.03;;
4555;SDS011;2290;48.674;9.018;2023-09-08T01:27:19;8.57;;;5.03;;
4555;SDS011;2290;48.674;9.018;2023-09-08T01:29:48;5.53;;;4.43;;
4555;SDS011;2290;48.674;9.018;2023-09-08T01:32:15;5.43;;;4.90;;
4555;SDS011;2290;48.674;9.018;2023-09-08T01:34:41;6.10;;;4.90;;
4555;SDS011;2290;48.674;9.018;2023-09-08T01:37:07;8.03;;;5.13;;
4555;SDS011;2290;48.674;9.018;2023-09-08T01:39:33;5.57;;;5.07;;
4555;SDS011;2290;48.674;9.018;2023-09-08T01:41:59;7.50;;;4.97;;
4555;SDS011;2290;48.674;9.018;2023-09-08T01:44:24;8.37;;;4.53;;
4555;SDS011;2290;48.674;9.018;2023-09-08T01:46:50;5.93;;;4.40;;
4555;SDS011;2290;48.674;9.018;2023-09-08T01:49:21;5.93;;;4.60;;
4555;SDS011;2290;48.674;9.018;2023-09-08T01:51:47;5.23;;;4.47;;
4555;SDS011;2290;48.674;9.018;2023-09-08T01:54:13;5.43;;;4.67;;
4555;SDS011;2290;48.674;9.018;2023-09-08T01:56:38;6.17;;;4.67;;
4555;SDS011;2290;48.674;9.018;2023-09-08T01:59:04;6.13;;;4.83;;
4555;SDS011;2290;48.674;9.018;2023-09-08T02:01:29;6.43;;;5.00;;
4555;SDS011;2290;48.674;9.018;2023-09-08T02:03:55;5.67;;;4.90;;
4555;SDS011;2290;48.674;9.018;2023-09-08T02:06:20;5.90;;;5.30;;
4555;SDS011;2290;48.674;9.018;2023-09-08T02:08:46;7.30;;;5.00;;
4555;SDS011;2290;48.674;9.018;2023-09-08T02:11:11;6.90;;;4.97;;
4555;SDS011;2290;48.674;9.018;2023-09-08T02:13:37;6.20;;;5.07;;
4555;SDS011;2290;48.674;9.018;2023-09-08T02:16:03;4.83;;;4.33;;
4555;SDS011;2290;48.674;9.018;2023-09-08T02:18:29;5.33;;;4.83;;
4555;SDS011;2290;48.674;9.018;2023-09-08T02:20:54;5.73;;;3.87;;
4555;SDS011;2290;48.674;9.018;2023-09-08T02:23:20;5.20;;;4.57;;
4555;SDS011;2290;48.674;9.018;2023-09-08T02:25:45;5.37;;;4.20;;
4555;SDS011;2290;48.674;9.018;2023-09-08T02:28:11;7.30;;;4.50;;
4555;SDS011;2290;48.674;9.018;2023-09-08T02:30:37;6.00;;;4.50;;
4555;SDS011;2290;48.674;9.018;2023-09-08T02:33:02;6.83;;;4.67;;
4555;SDS011;2290;48.674;9.018;2023-09-08T02:35:28;8.10;;;4.97;;
4555;SDS011;2290;48.674;9.018;2023-09-08T02:37:53;7.33;;;4.93;;
4555;SDS011;2290;48.674;9.018;2023-09-08T02:40:19;6.47;;;4.67;;
4555;SDS011;2290;48.674;9.018;2023-09-08T02:42:45;6.50;;;4.40;;
4555;SDS011;2290;48.674;9.018;2023-09-08T02:45:11;9.07;;;5.30;;
4555;SDS011;2290;48.674;9.018;2023-09-08T02:47:36;5.83;;;4.80;;
4555;SDS011;2290;48.674;9.018;2023-09-08T02:50:02;7.37;;;4.80;;
4555;SDS011;2290;48.674;9.018;2023-09-08T02:52:29;9.30;;;5.07;;
4555;SDS011;2290;48.674;9.018;2023-09-08T02:54:55;5.77;;;4.60;;
4555;SDS011;2290;48.674;9.018;2023-09-08T02:57:21;6.20;;;4.90;;
4555;SDS011;2290;48.674;9.018;2023-09-08T02:59:49;6.40;;;4.70;;
4555;SDS011;2290;48.674;9.018;2023-09-08T03:02:21;6.40;;;4.57;;
4555;SDS011;2290;48.674;9.018;2023-09-08T03:04:47;6.47;;;4.73;;
4555;SDS011;2290;48.674;9.018;2023-09-08T03:07:12;7.30;;;4.87;;
4555;SDS011;2290;48.674;9.018;2023-09-08T03:09:38;6.63;;;4.70;;
4555;SDS011;2290;48.674;9.018;2023-09-08T03:12:03;9.67;;;4.70;;
4555;SDS011;2290;48.674;9.018;2023-09-08T03:14:29;7.37;;;4.30;;
4555;SDS011;2290;48.674;9.018;2023-09-08T03:16:55;5.90;;;4.80;;
4555;SDS011;2290;48.674;9.018;2023-09-08T03:19:20;6.30;;;4.50;;
4555;SDS011;2290;48.674;9.018;2023-09-08T03:21:46;5.80;;;4.47;;
4555;SDS011;2290;48.674;9.018;2023-09-08T03:24:11;5.17;;;4.50;;
4555;SDS011;2290;48.674;9.018;2023-09-08T03:26:37;7.27;;;4.77;;
4555;SDS011;2290;48.674;9.018;2023-09-08T03:29:04;6.93;;;4.57;;
4555;SDS011;2290;48.674;9.018;2023-09-08T03:31:30;6.23;;;4.80;;
4555;SDS011;2290;48.674;9.018;2023-09-08T03:33:56;6.87;;;4.90;;
4555;SDS011;2290;48.674;9.018;2023-09-08T03:36:21;7.17;;;5.20;;
4555;SDS011;2290;48.674;9.018;2023-09-08T03:38:47;5.87;;;4.17;;
4555;SDS011;2290;48.674;9.018;2023-09-08T03:41:12;10.17;;;4.80;;
4555;SDS011;2290;48.674;9.018;2023-09-08T03:43:39;6.83;;;4.27;;
4555;SDS011;2290;48.674;9.018;2023-09-08T03:46:05;5.20;;;4.00;;
4555;SDS011;2290;48.674;9.018;2023-09-08T03:48:30;6.07;;;4.47;;
4555;SDS011;2290;48.674;9.018;2023-09-08T03:50:56;5.70;;;3.80;;
4555;SDS011;2290;48.674;9.018;2023-09-08T03:53:22;6.70;;;4.83;;
4555;SDS011;2290;48.674;9.018;2023-09-08T03:55:47;6.17;;;4.70;;
4555;SDS011;2290;48.674;9.018;2023-09-08T03:58:13;5.80;;;4.77;;
4555;SDS011;2290;48.674;9.018;2023-09-08T04:00:38;8.90;;;4.90;;
4555;SDS011;2290;48.674;9.018;2023-09-08T04:03:04;6.40;;;4.63;;
4555;SDS011;2290;48.674;9.018;2023-09-08T04:05:29;5.20;;;4.20;;
4555;SDS011;2290;48.674;9.018;2023-09-08T04:07:55;6.10;;;4.80;;
4555;SDS011;2290;48.674;9.018;2023-09-08T04:10:21;6.63;;;4.57;;
4555;SDS011;2290;48.674;9.018;2023-09-08T04:12:46;6.17;;;4.40;;
4555;SDS011;2290;48.674;9.018;2023-09-08T04:15:12;8.43;;;4.60;;
4555;SDS011;2290;48.674;9.018;2023-09-08T04:17:37;11.47;;;4.93;;
4555;SDS011;2290;48.674;9.018;2023-09-08T04:20:03;5.57;;;4.33;;
4555;SDS011;2290;48.674;9.018;2023-09-08T04:22:30;4.70;;;4.00;;
4555;SDS011;2290;48.674;9.018;2023-09-08T04:24:56;9.17;;;5.00;;
4555;SDS011;2290;48.674;9.018;2023-09-08T04:27:22;5.60;;;4.57;;
4555;SDS011;2290;48.674;9.018;2023-09-08T04:29:48;6.00;;;4.60;;
4555;SDS011;2290;48.674;9.018;2023-09-08T04:32:13;5.60;;;4.53;;
4555;SDS011;2290;48.674;9.018;2023-09-08T04:34:39;5.60;;;4.50;;
4555;SDS011;2290;48.674;9.018;2023-09-08T04:37:06;8.83;;;5.37;;
4555;SDS011;2290;48.674;9.018;2023-09-08T04:39:32;6.83;;;4.60;;
4555;SDS011;2290;48.674;9.018;2023-09-08T04:41:58;6.03;;;4.33;;
4555;SDS011;2290;48.674;9.018;2023-09-08T04:44:24;6.70;;;4.70;;
4555;SDS011;2290;48.674;9.018;2023-09-08T04:46:50;6.57;;;4.37;;
4555;SDS011;2290;48.674;9.018;2023-09-08T04:49:16;6.13;;;4.23;;
4555;SDS011;2290;48.674;9.018;2023-09-08T04:51:42;4.90;;;4.33;;
4555;SDS011;2290;48.674;9.018;2023-09-08T04:54:08;7.27;;;4.23;;
4555;SDS011;2290;48.674;9.018;2023-09-08T04:56:34;7.00;;;4.90;;
4555;SDS011;2290;48.674;9.018;2023-09-08T04:58:59;5.60;;;4.17;;
4555;SDS011;2290;48.674;9.018;2023-09-08T05:01:26;8.10;;;4.87;;
4555;SDS011;2290;48.674;9.018;2023-09-08T05:03:52;6.50;;;4.40;;
4555;SDS011;2290;48.674;9.018;2023-09-08T05:06:18;6.20;;;4.00;;
4555;SDS011;2290;48.674;9.018;2023-09-08T05:08:43;7.53;;;4.70;;
4555;SDS011;2290;48.674;9.018;2023-09-08T05:11:09;4.90;;;4.03;;
4555;SDS011;2290;48.674;9.018;2023-09-08T05:13:35;6.83;;;5.50;;
4555;SDS011;2290;48.674;9.018;2023-09-08T05:16:01;7.60;;;4.80;;
4555;SDS011;2290;48.674;9.018;2023-09-08T05:18:36;6.07;;;4.87;;
4555;SDS011;2290;48.674;9.018;2023-09-08T05:21:02;8.17;;;5.20;;
4555;SDS011;2290;48.674;9.018;2023-09-08T05:23:27;6.20;;;4.57;;
4555;SDS011;2290;48.674;9.018;2023-09-08T05:25:53;6.97;;;4.80;;
4555;SDS011;2290;48.674;9.018;2023-09-08T05:28:19;6.20;;;4.90;;
4555;SDS011;2290;48.674;9.018;2023-09-08T05:30:45;9.57;;;4.80;;
4555;SDS011;2290;48.674;9.018;2023-09-08T05:33:10;6.50;;;4.43;;
4555;SDS011;2290;48.674;9.018;2023-09-08T05:35:36;7.00;;;4.43;;
4555;SDS011;2290;48.674;9.018;2023-09-08T05:38:01;5.73;;;4.60;;
4555;SDS011;2290;48.674;9.018;2023-09-08T05:40:27;14.13;;;4.57;;
4555;SDS011;2290;48.674;9.018;2023-09-08T05:42:53;7.03;;;4.80;;
4555;SDS011;2290;48.674;9.018;2023-09-08T05:45:18;6.00;;;4.70;;
4555;SDS011;2290;48.674;9.018;2023-09-08T05:47:44;10.50;;;5.60;;
4555;SDS011;2290;48.674;9.018;2023-09-08T05:50:09;6.17;;;4.97;;
4555;SDS011;2290;48.674;9.018;2023-09-08T05:52:36;6.43;;;4.87;;
4555;SDS011;2290;48.674;9.018;2023-09-08T05:55:01;8.60;;;4.53;;
4555;SDS011;2290;48.674;9.018;2023-09-08T05:57:27;6.77;;;4.70;;
4555;SDS011;2290;48.674;9.018;2023-09-08T05:59:52;7.13;;;5.03;;
4555;SDS011;2290;48.674;9.018;2023-09-08T06:02:18;8.47;;;5.40;;
4555;SDS011;2290;48.674;9.018;2023-09-08T06:04:43;7.07;;;5.33;;
4555;SDS011;2290;48.674;9.018;2023-09-08T06:07:09;9.27;;;5.43;;
4555;SDS011;2290;48.674;9.018;2023-09-08T06:09:34;7.27;;;5.17;;
4555;SDS011;2290;48.674;9.018;2023-09-08T06:12:00;7.13;;;5.10;;
4555;SDS011;2290;48.674;9.018;2023-09-08T06:14:25;7.40;;;5.93;;
4555;SDS011;2290;48.674;9.018;2023-09-08T06:16:51;7.80;;;5.43;;
4555;SDS011;2290;48.674;9.018;2023-09-08T06:19:17;8.43;;;5.67;;
4555;SDS011;2290;48.674;9.018;2023-09-08T06:21:42;8.13;;;5.37;;
4555;SDS011;2290;48.674;9.018;2023-09-08T06:24:08;8.17;;;5.13;;
4555;SDS011;2290;48.674;9.018;2023-09-08T06:26:33;8.90;;;5.53;;
4555;SDS011;2290;48.674;9.018;2023-09-08T06:28:59;6.93;;;5.43;;
4555;SDS011;2290;48.674;9.018;2023-09-08T06:31:24;7.03;;;5.53;;
4555;SDS011;2290;48.674;9.018;2023-09-08T06:33:50;8.27;;;5.60;;
4555;SDS011;2290;48.674;9.018;2023-09-08T06:36:17;8.73;;;6.00;;
4555;SDS011;2290;48.674;9.018;2023-09-08T06:38:43;7.20;;;5.70;;
4555;SDS011;2290;48.674;9.018;2023-09-08T06:41:09;8.97;;;5.93;;
4555;SDS011;2290;48.674;9.018;2023-09-08T06:43:36;7.30;;;5.50;;
4555;SDS011;2290;48.674;9.018;2023-09-08T06:46:02;9.00;;;6.10;;
4555;SDS011;2290;48.674;9.018;2023-09-08T06:48:27;10.53;;;6.00;;
4555;SDS011;2290;48.674;9.018;2023-09-08T06:50:53;8.10;;;6.20;;
4555;SDS011;2290;48.674;9.018;2023-09-08T06:53:21;8.93;;;6.20;;
4555;SDS011;2290;48.674;9.018;2023-09-08T06:55:47;8.17;;;6.67;;
4555;SDS011;2290;48.674;9.018;2023-09-08T06:58:12;6.90;;;5.80;;
4555;SDS011;2290;48.674;9.018;2023-09-08T07:00:39;9.37;;;6.50;;
4555;SDS011;2290;48.674;9.018;2023-09-08T07:03:06;9.30;;;5.57;;
4555;SDS011;2290;48.674;9.018;2023-09-08T07:05:33;10.70;;;6.93;;
4555;SDS011;2290;48.674;9.018;2023-09-08T07:07:59;7.13;;;6.13;;
4555;SDS011;2290;48.674;9.018;2023-09-08T07:10:24;8.90;;;6.83;;
4555;SDS011;2290;48.674;9.018;2023-09-08T07:12:50;10.20;;;6.87;;
4555;SDS011;2290;48.674;9.018;2023-09-08T07:15:16;10.30;;;6.63;;
4555;SDS011;2290;48.674;9.018;2023-09-08T07:17:41;8.50;;;6.57;;
4555;SDS011;2290;48.674;9.018;2023-09-08T07:20:07;9.30;;;7.07;;
4555;SDS011;2290;48.674;9.018;2023-09-08T07:22:33;10.93;;;7.27;;
4555;SDS011;2290;48.674;9.018;2023-09-08T07:24:58;10.90;;;7.83;;
4555;SDS011;2290;48.674;9.018;2023-09-08T07:27:24;8.83;;;6.83;;
4555;SDS011;2290;48.674;9.018;2023-09-08T07:29:50;10.40;;;7.60;;
4555;SDS011;2290;48.674;9.018;2023-09-08T07:32:15;10.93;;;7.00;;
4555;SDS011;2290;48.674;9.018;2023-09-08T07:34:42;9.07;;;7.23;;
4555;SDS011;2290;48.674;9.018;2023-09-08T07:37:07;9.40;;;7.47;;
4555;SDS011;2290;48.674;9.018;2023-09-08T07:39:33;9.80;;;7.60;;
4555;SDS011;2290;48.674;9.018;2023-09-08T07:42:00;10.20;;;7.20;;
4555;SDS011;2290;48.674;9.018;2023-09-08T07:44:26;9.43;;;6.83;;
4555;SDS011;2290;48.674;9.018;2023-09-08T07:46:52;13.00;;;6.97;;
4555;SDS011;2290;48.674;9.018;2023-09-08T07:49:18;9.80;;;7.33;;
4555;SDS011;2290;48.674;9.018;2023-09-08T07:51:45;8.27;;;6.70;;
4555;SDS011;2290;48.674;9.018;2023-09-08T07:54:10;8.50;;;6.87;;
4555;SDS011;2290;48.674;9.018;2023-09-08T07:56:36;9.00;;;7.60;;
4555;SDS011;2290;48.674;9.018;2023-09-08T07:59:02;10.30;;;7.70;;
4555;SDS011;2290;48.674;9.018;2023-09-08T08:01:27;10.03;;;7.30;;
4555;SDS011;2290;48.674;9.018;2023-09-08T08:03:53;8.77;;;7.23;;
4555;SDS011;2290;48.674;9.018;2023-09-08T08:06:18;9.20;;;6.87;;
4555;SDS011;2290;48.674;9.018;2023-09-08T08:08:44;10.10;;;7.50;;
4555;SDS011;2290;48.674;9.018;2023-09-08T08:11:13;10.07;;;7.57;;
4555;SDS011;2290;48.674;9.018;2023-09-08T08:13:40;11.90;;;7.20;;
4555;SDS011;2290;48.674;9.018;2023-09-08T08:16:06;12.93;;;7.13;;
4555;SDS011;2290;48.674;9.018;2023-09-08T08:18:32;9.67;;;7.60;;
4555;SDS011;2290;48.674;9.018;2023-09-08T08:20:58;11.57;;;7.97;;
4555;SDS011;2290;48.674;9.018;2023-09-08T08:23:25;8.07;;;6.70;;
4555;SDS011;2290;48.674;9.018;2023-09-08T08:25:51;10.37;;;7.67;;
4555;SDS011;2290;48.674;9.018;2023-09-08T08:28:17;8.50;;;7.30;;
4555;SDS011;2290;48.674;9.018;2023-09-08T08:30:42;8.47;;;7.20;;
4555;SDS011;2290;48.674;9.018;2023-09-08T08:33:08;8.60;;;7.40;;
4555;SDS011;2290;48.674;9.018;2023-09-08T08:35:33;9.13;;;7.00;;
4555;SDS011;2290;48.674;9.018;2023-09-08T08:37:59;12.07;;;7.00;;
4555;SDS011;2290;48.674;9.018;2023-09-08T08:40:25;11.10;;;7.40;;
4555;SDS011;2290;48.674;9.018;2023-09-08T08:43:01;8.50;;;7.00;;
4555;SDS011;2290;48.674;9.018;2023-09-08T08:45:27;7.20;;;6.27;;
4555;SDS011;2290;48.674;9.018;2023-09-08T08:47:54;10.00;;;7.10;;
4555;SDS011;2290;48.674;9.018;2023-09-08T08:50:21;8.97;;;7.10;;
4555;SDS011;2290;48.674;9.018;2023-09-08T08:52:47;8.17;;;6.70;;
4555;SDS011;2290;48.674;9.018;2023-09-08T08:55:12;8.83;;;7.10;;
4555;SDS011;2290;48.674;9.018;2023-09-08T08:57:41;8.50;;;7.20;;
4555;SDS011;2290;48.674;9.018;2023-09-08T09:00:07;9.47;;;7.47;;
4555;SDS011;2290;48.674;9.018;2023-09-08T09:02:36;16.93;;;7.07;;
4555;SDS011;2290;48.674;9.018;2023-09-08T09:05:05;8.23;;;6.53;;
4555;SDS011;2290;48.674;9.018;2023-09-08T09:07:33;8.43;;;6.90;;
4555;SDS011;2290;48.674;9.018;2023-09-08T09:09:59;8.40;;;6.50;;
4555;SDS011;2290;48.674;9.018;2023-09-08T09:12:25;8.80;;;6.70;;
4555;SDS011;2290;48.674;9.018;2023-09-08T09:14:54;7.97;;;6.37;;
4555;SDS011;2290;48.674;9.018;2023-09-08T09:17:19;9.93;;;7.67;;
4555;SDS011;2290;48.674;9.018;2023-09-08T09:19:46;8.73;;;7.70;;
4555;SDS011;2290;48.674;9.018;2023-09-08T09:22:11;7.83;;;6.30;;
4555;SDS011;2290;48.674;9.018;2023-09-08T09:24:37;8.97;;;7.20;;
4555;SDS011;2290;48.674;9.018;2023-09-08T09:27:11;11.20;;;6.83;;
4555;SDS011;2290;48.674;9.018;2023-09-08T09:29:45;9.90;;;7.53;;
4555;SDS011;2290;48.674;9.018;2023-09-08T09:32:11;7.60;;;6.80;;
4555;SDS011;2290;48.674;9.018;2023-09-08T09:34:47;8.93;;;7.13;;
4555;SDS011;2290;48.674;9.018;2023-09-08T09:37:14;10.40;;;7.30;;
4555;SDS011;2290;48.674;9.018;2023-09-08T09:39:39;10.07;;;6.53;;
4555;SDS011;2290;48.674;9.018;2023-09-08T09:42:05;8.83;;;7.30;;
4555;SDS011;2290;48.674;9.018;2023-09-08T09:44:31;9.60;;;6.83;;
4555;SDS011;2290;48.674;9.018;2023-09-08T09:46:57;9.23;;;6.80;;
4555;SDS011;2290;48.674;9.018;2023-09-08T09:49:23;9.30;;;7.10;;
4555;SDS011;2290;48.674;9.018;2023-09-08T09:51:53;8.77;;;7.50;;
4555;SDS011;2290;48.674;9.018;2023-09-08T09:54:19;7.50;;;6.70;;
4555;SDS011;2290;48.674;9.018;2023-09-08T09:56:45;9.93;;;7.23;;
4555;SDS011;2290;48.674;9.018;2023-09-08T09:59:13;8.20;;;7.10;;
4555;SDS011;2290;48.674;9.018;2023-09-08T10:01:40;9.67;;;7.00;;
4555;SDS011;2290;48.674;9.018;2023-09-08T10:04:07;7.17;;;6.47;;
4555;SDS011;2290;48.674;9.018;2023-09-08T10:06:33;9.40;;;6.90;;
4555;SDS011;2290;48.674;9.018;2023-09-08T10:09:01;7.70;;;6.43;;
4555;SDS011;2290;48.674;9.018;2023-09-08T10:11:48;7.33;;;6.60;;
4555;SDS011;2290;48.674;9.018;2023-09-08T10:14:15;8.00;;;6.43;;
4555;SDS011;2290;48.674;9.018;2023-09-08T10:16:40;11.60;;;7.07;;
4555;SDS011;2290;48.674;9.018;2023-09-08T10:19:10;7.20;;;5.93;;
4555;SDS011;2290;48.674;9.018;2023-09-08T10:21:39;7.50;;;6.20;;
4555;SDS011;2290;48.674;9.018;2023-09-08T10:24:18;8.13;;;7.20;;
4555;SDS011;2290;48.674;9.018;2023-09-08T10:27:00;8.60;;;6.73;;
4555;SDS011;2290;48.674;9.018;2023-09-08T10:29:34;9.30;;;6.70;;
4555;SDS011;2290;48.674;9.018;2023-09-08T10:32:00;8.37;;;7.30;;
4555;SDS011;2290;48.674;9.018;2023-09-08T10:34:27;9.60;;;7.10;;
4555;SDS011;2290;48.674;9.018;2023-09-08T10:36:54;6.93;;;6.10;;
4555;SDS011;2290;48.674;9.018;2023-09-08T10:39:30;8.00;;;6.40;;
4555;SDS011;2290;48.674;9.018;2023-09-08T10:44:58;10.17;;;7.23;;
4555;SDS011;2290;48.674;9.018;2023-09-08T10:47:33;7.57;;;6.77;;
4555;SDS011;2290;48.674;9.018;2023-09-08T10:50:43;9.20;;;6.50;;
4555;SDS011;2290;48.674;9.018;2023-09-08T10:53:15;10.10;;;7.23;;
4555;SDS011;2290;48.674;9.018;2023-09-08T10:55:46;8.23;;;7.30;;
4555;SDS011;2290;48.674;9.018;2023-09-08T10:58:19;7.27;;;6.57;;
4555;SDS011;2290;48.674;9.018;2023-09-08T11:00:58;7.67;;;6.87;;
4555;SDS011;2290;48.674;9.018;2023-09-08T11:03:27;7.93;;;7.13;;
4555;SDS011;2290;48.674;9.018;2023-09-08T11:06:08;9.07;;;6.50;;
4555;SDS011;2290;48.674;9.018;2023-09-08T11:08:36;8.60;;;6.57;;
4555;SDS011;2290;48.674;9.018;2023-09-08T11:11:12;8.17;;;6.90;;
4555;SDS011;2290;48.674;9.018;2023-09-08T11:13:40;7.47;;;6.67;;
4555;SDS011;2290;48.674;9.018;2023-09-08T11:16:06;11.00;;;7.03;;
4555;SDS011;2290;48.674;9.018;2023-09-08T11:18:32;7.30;;;6.00;;
4555;SDS011;2290;48.674;9.018;2023-09-08T11:20:59;7.43;;;6.53;;
4555;SDS011;2290;48.674;9.018;2023-09-08T11:23:27;9.20;;;7.03;;
4555;SDS011;2290;48.674;9.018;2023-09-08T11:25:53;9.87;;;7.00;;
4555;SDS011;2290;48.674;9.018;2023-09-08T11:28:22;11.20;;;7.30;;
4555;SDS011;2290;48.674;9.018;2023-09-08T11:30:48;10.73;;;6.60;;
4555;SDS011;2290;48.674;9.018;2023-09-08T11:33:15;9.33;;;6.77;;
4555;SDS011;2290;48.674;9.018;2023-09-08T11:35:50;12.60;;;6.70;;
4555;SDS011;2290;48.674;9.018;2023-09-08T11:38:25;8.50;;;6.77;;
4555;SDS011;2290;48.674;9.018;2023-09-08T11:40:52;9.07;;;6.87;;
4555;SDS011;2290;48.674;9.018;2023-09-08T11:43:19;8.47;;;7.00;;
4555;SDS011;2290;48.674;9.018;2023-09-08T11:45:45;8.30;;;6.20;;
4555;SDS011;2290;48.674;9.018;2023-09-08T11:48:11;8.47;;;6.90;;
4555;SDS011;2290;48.674;9.018;2023-09-08T11:50:40;8.10;;;6.97;;
4555;SDS011;2290;48.674;9.018;2023-09-08T11:53:06;7.10;;;5.83;;
4555;SDS011;2290;48.674;9.018;2023-09-08T11:55:32;8.30;;;6.27;;
4555;SDS011;2290;48.674;9.018;2023-09-08T11:57:58;7.70;;;6.50;;
4555;SDS011;2290;48.674;9.018;2023-09-08T12:00:26;6.90;;;6.17;;
4555;SDS011;2290;48.674;9.018;2023-09-08T12:02:52;8.47;;;6.57;;
4555;SDS011;2290;48.674;9.018;2023-09-08T12:05:22;5.93;;;5.33;;
4555;SDS011;2290;48.674;9.018;2023-09-08T12:07:48;7.40;;;5.97;;
4555;SDS011;2290;48.674;9.018;2023-09-08T12:10:21;6.33;;;5.60;;
4555;SDS011;2290;48.674;9.018;2023-09-08T12:12:48;6.50;;;5.87;;
4555;SDS011;2290;48.674;9.018;2023-09-08T12:15:31;8.73;;;6.37;;
4555;SDS011;2290;48.674;9.018;2023-09-08T12:18:01;10.30;;;6.60;;
4555;SDS011;2290;48.674;9.018;2023-09-08T12:20:29;7.20;;;6.50;;
4555;SDS011;2290;48.674;9.018;2023-09-08T12:22:56;10.57;;;6.30;;
4555;SDS011;2290;48.674;9.018;2023-09-08T12:25:24;7.50;;;6.40;;
4555;SDS011;2290;48.674;9.018;2023-09-08T12:27:50;7.00;;;6.20;;
4555;SDS011;2290;48.674;9.018;2023-09-08T12:30:20;9.10;;;6.90;;
4555;SDS011;2290;48.674;9.018;2023-09-08T12:32:49;7.43;;;6.20;;
4555;SDS011;2290;48.674;9.018;2023-09-08T12:35:19;6.77;;;6.07;;
4555;SDS011;2290;48.674;9.018;2023-09-08T12:37:53;7.20;;;6.30;;
4555;SDS011;2290;48.674;9.018;2023-09-08T12:40:22;7.10;;;6.40;;
4555;SDS011;2290;48.674;9.018;2023-09-08T12:42:47;8.27;;;7.00;;
4555;SDS011;2290;48.674;9.018;2023-09-08T12:45:13;7.23;;;6.37;;
4555;SDS011;2290;48.674;9.018;2023-09-08T12:47:39;8.03;;;6.80;;
4555;SDS011;2290;48.674;9.018;2023-09-08T12:50:04;7.70;;;6.67;;
4555;SDS011;2290;48.674;9.018;2023-09-08T12:52:30;9.70;;;6.50;;
4555;SDS011;2290;48.674;9.018;2023-09-08T12:54:57;8.00;;;7.10;;
4555;SDS011;2290;48.674;9.018;2023-09-08T12:57:22;9.23;;;8.30;;
4555;SDS011;2290;48.674;9.018;2023-09-08T12:59:48;12.37;;;7.93;;
4555;SDS011;2290;48.674;9.018;2023-09-08T13:02:16;10.00;;;7.73;;
4555;SDS011;2290;48.674;9.018;2023-09-08T13:04:41;9.57;;;8.37;;
4555;SDS011;2290;48.674;9.018;2023-09-08T13:07:07;8.23;;;7.43;;
4555;SDS011;2290;48.674;9.018;2023-09-08T13:09:32;9.10;;;8.17;;
4555;SDS011;2290;48.674;9.018;2023-09-08T13:11:58;8.90;;;7.67;;
4555;SDS011;2290;48.674;9.018;2023-09-08T13:14:23;9.40;;;7.43;;
4555;SDS011;2290;48.674;9.018;2023-09-08T13:16:49;9.00;;;7.80;;
4555;SDS011;2290;48.674;9.018;2023-09-08T13:19:15;10.43;;;8.33;;
4555;SDS011;2290;48.674;9.018;2023-09-08T13:21:40;8.77;;;7.87;;
4555;SDS011;2290;48.674;9.018;2023-09-08T13:24:06;8.70;;;7.80;;
4555;SDS011;2290;48.674;9.018;2023-09-08T13:26:32;9.07;;;8.10;;
4555;SDS011;2290;48.674;9.018;2023-09-08T13:28:58;8.60;;;7.73;;
4555;SDS011;2290;48.674;9.018;2023-09-08T13:31:24;11.30;;;8.40;;
4555;SDS011;2290;48.674;9.018;2023-09-08T13:33:49;9.70;;;8.43;;
4555;SDS011;2290;48.674;9.018;2023-09-08T13:36:15;9.70;;;8.10;;
4555;SDS011;2290;48.674;9.018;2023-09-08T13:38:40;9.80;;;7.80;;
4555;SDS011;2290;48.674;9.018;2023-09-08T13:41:06;9.73;;;7.43;;
4555;SDS011;2290;48.674;9.018;2023-09-08T13:43:32;8.93;;;8.00;;
4555;SDS011;2290;48.674;9.018;2023-09-08T13:45:57;7.90;;;7.10;;
4555;SDS011;2290;48.674;9.018;2023-09-08T13:48:23;10.77;;;7.43;;
4555;SDS011;2290;48.674;9.018;2023-09-08T13:50:48;8.90;;;8.00;;
4555;SDS011;2290;48.674;9.018;2023-09-08T13:53:14;9.37;;;8.37;;
4555;SDS011;2290;48.674;9.018;2023-09-08T13:55:39;8.77;;;7.87;;
4555;SDS011;2290;48.674;9.018;2023-09-08T13:58:05;11.00;;;7.97;;
4555;SDS011;2290;48.674;9.018;2023-09-08T14:00:30;10.07;;;8.50;;
4555;SDS011;2290;48.674;9.018;2023-09-08T14:02:56;9.37;;;8.33;;
4555;SDS011;2290;48.674;9.018;2023-09-08T14:05:21;8.70;;;7.60;;
4555;SDS011;2290;48.674;9.018;2023-09-08T14:07:47;9.63;;;8.20;;
4555;SDS011;2290;48.674;9.018;2023-09-08T14:10:13;8.33;;;7.50;;
4555;SDS011;2290;48.674;9.018;2023-09-08T14:12:38;8.87;;;7.97;;
4555;SDS011;2290;48.674;9.018;2023-09-08T14:15:04;11.63;;;7.77;;
4555;SDS011;2290;48.674;9.018;2023-09-08T14:17:30;8.63;;;7.73;;
4555;SDS011;2290;48.674;9.018;2023-09-08T14:19:55;11.03;;;8.23;;
4555;SDS011;2290;48.674;9.018;2023-09-08T14:22:21;9.60;;;8.17;;
4555;SDS011;2290;48.674;9.018;2023-09-08T14:24:46;13.80;;;8.00;;
4555;SDS011;2290;48.674;9.018;2023-09-08T14:27:12;9.83;;;7.53;;
4555;SDS011;2290;48.674;9.018;2023-09-08T14:29:37;7.83;;;7.00;;
4555;SDS011;2290;48.674;9.018;2023-09-08T14:32:03;8.47;;;7.63;;
4555;SDS011;2290;48.674;9.018;2023-09-08T14:34:28;8.33;;;7.40;;
4555;SDS011;2290;48.674;9.018;2023-09-08T14:36:54;10.00;;;7.93;;
4555;SDS011;2290;48.674;9.018;2023-09-08T14:39:19;8.17;;;7.30;;
4555;SDS011;2290;48.674;9.018;2023-09-08T14:41:45;8.13;;;7.33;;
4555;SDS011;2290;48.674;9.018;2023-09-08T14:44:11;8.43;;;7.53;;
4555;SDS011;2290;48.674;9.018;2023-09-08T14:46:36;8.33;;;7.27;;
4555;SDS011;2290;48.674;9.018;2023-09-08T14:49:02;8.83;;;7.40;;
4555;SDS011;2290;48.674;9.018;2023-09-08T14:51:28;8.43;;;7.53;;
4555;SDS011;2290;48.674;9.018;2023-09-08T14:53:54;8.23;;;7.43;;
4555;SDS011;2290;48.674;9.018;2023-09-08T14:56:19;10.33;;;7.30;;
4555;SDS011;2290;48.674;9.018;2023-09-08T14:58:45;8.50;;;7.40;;
4555;SDS011;2290;48.674;9.018;2023-09-08T15:01:10;8.20;;;7.37;;
4555;SDS011;2290;48.674;9.018;2023-09-08T15:03:39;8.23;;;7.07;;
4555;SDS011;2290;48.674;9.018;2023-09-08T15:06:04;7.40;;;6.70;;
4555;SDS011;2290;48.674;9.018;2023-09-08T15:08:30;7.67;;;6.90;;
4555;SDS011;2290;48.674;9.018;2023-09-08T15:10:56;8.13;;;7.33;;
4555;SDS011;2290;48.674;9.018;2023-09-08T15:13:21;7.97;;;7.20;;
4555;SDS011;2290;48.674;9.018;2023-09-08T15:15:47;9.00;;;7.40;;
4555;SDS011;2290;48.674;9.018;2023-09-08T15:18:12;11.87;;;8.97;;